Humidity-temperature Sensor

Selected Measurement Type: Air Temperature

 
Air Temperature [°C]     6 entries per hour
Showing data from 8/30/2016 (00:00:00 Z) to 8/27/2016 (00:01:00 Z)
Previous Next [ Day | 3-Days | 7-Days ]
First Last
Prev [ Day | 3-Days | 7-Days ] Next
First Last

Start Time:     :
End Time:     :     
Time (in GMT) :00 :50 :40 :30 :20 :10
Previous Next [ Day | 3-Days | 7-Days ]
First Last
Prev [ Day | 3-Days | 7-Days ] Next
First Last


123 => good data
MM => data is determined as missing
-- => data not received/configured
Back to Top Back to Top
8/30/2016 00:00 to 23:10 29.19 29.06 29.05 29.22 29.13 29.06
8/29/2016 23:00 to 22:10 29.03 28.90 28.99 28.95 28.84 29.03
8/29/2016 22:00 to 21:10 28.85 28.91 28.76 29.04 28.83 28.79
8/29/2016 21:00 to 20:10 -- -- -- -- -- --
8/29/2016 20:00 to 19:10 28.73 28.68 28.74 28.75 28.63 28.49
8/29/2016 19:00 to 18:10 28.76 28.87 28.85 28.74 29.02 28.88
8/29/2016 18:00 to 17:10 28.68 28.53 28.41 28.25 28.20 28.18
8/29/2016 17:00 to 16:10 28.16 28.14 28.16 28.18 28.18 28.15
8/29/2016 16:00 to 15:10 -- -- -- -- -- --
8/29/2016 15:00 to 14:10 28.24 28.24 28.23 28.26 28.26 28.27
8/29/2016 14:00 to 13:10 28.27 28.29 28.31 28.32 28.35 28.39
8/29/2016 13:00 to 12:10 28.41 28.42 28.44 28.43 28.45 28.50
8/29/2016 12:00 to 11:10 28.54 28.54 28.56 28.56 28.58 28.61
8/29/2016 11:00 to 10:10 28.64 28.64 28.61 28.66 28.70 28.71
8/29/2016 10:00 to 9:10 28.76 28.73 28.76 28.76 28.78 28.77
8/29/2016 09:00 to 8:10 28.77 28.77 28.77 28.80 28.78 28.78
8/29/2016 08:00 to 7:10 28.75 28.80 28.81 28.75 28.77 28.81
8/29/2016 07:00 to 6:10 28.85 28.83 28.90 28.89 28.85 28.86
8/29/2016 06:00 to 5:10 28.88 28.86 28.89 28.99 29.18 29.52
8/29/2016 05:00 to 4:10 30.26 29.86 30.39 30.62 30.54 29.82
8/29/2016 04:00 to 3:10 30.07 29.89 30.38 30.00 29.65 30.24
8/29/2016 03:00 to 2:10 29.75 29.66 29.19 29.09 28.96 29.07
8/29/2016 02:00 to 1:10 29.00 28.92 28.96 29.00 28.81 29.04
8/29/2016 01:00 to 0:10 29.01 28.83 28.69 28.74 28.55 29.04
8/29/2016 00:00 to 23:10 28.67 28.58 28.48 28.30 28.36 28.39
8/28/2016 23:00 to 22:10 28.40 28.35 28.35 28.43 28.40 28.37
8/28/2016 22:00 to 21:10 28.29 28.23 28.15 28.15 28.12 28.06
8/28/2016 21:00 to 20:10 28.18 28.43 28.36 28.46 28.38 28.48
8/28/2016 20:00 to 19:10 28.63 28.70 28.74 28.90 28.91 28.82
8/28/2016 19:00 to 18:10 29.22 28.92 29.30 29.40 29.12 28.40
8/28/2016 18:00 to 17:10 29.14 28.68 27.90 27.84 27.55 27.51
8/28/2016 17:00 to 16:10 27.48 27.45 27.35 27.31 27.29 27.19
8/28/2016 16:00 to 15:10 27.11 27.08 27.06 26.95 27.14 27.15
8/28/2016 15:00 to 14:10 26.97 26.85 26.75 26.48 26.70 26.49
8/28/2016 14:00 to 13:10 26.77 26.73 26.54 26.66 26.73 26.89
8/28/2016 13:00 to 12:10 27.68 27.65 27.60 27.64 27.61 27.57
8/28/2016 12:00 to 11:10 27.66 27.82 27.91 28.05 28.02 28.06
8/28/2016 11:00 to 10:10 28.25 28.33 28.30 28.30 28.33 28.28
8/28/2016 10:00 to 9:10 28.26 28.29 28.28 28.25 28.25 28.22
8/28/2016 09:00 to 8:10 28.17 28.19 28.14 28.12 28.06 28.04
8/28/2016 08:00 to 7:10 28.02 27.99 28.00 28.01 28.01 27.91
8/28/2016 07:00 to 6:10 27.82 27.71 27.56 27.57 27.28 27.28
8/28/2016 06:00 to 5:10 27.29 27.11 26.63 26.82 26.85 27.24
8/28/2016 05:00 to 4:10 27.07 27.84 28.67 28.66 28.69 29.09
8/28/2016 04:00 to 3:10 29.14 29.31 29.60 28.92 29.45 28.71
8/28/2016 03:00 to 2:10 28.83 28.70 28.59 28.79 28.62 28.88
8/28/2016 02:00 to 1:10 29.13 29.05 29.06 29.12 29.54 29.02
8/28/2016 01:00 to 0:10 28.97 29.10 28.81 28.85 28.83 28.94
8/28/2016 00:00 to 23:10 28.77 28.72 28.66 28.59 28.64 28.59
8/27/2016 23:00 to 22:10 28.59 28.53 28.52 28.53 28.55 28.61
8/27/2016 22:00 to 21:10 -- -- -- -- -- --
8/27/2016 21:00 to 20:10 28.70 28.60 28.53 28.48 28.46 28.37
8/27/2016 20:00 to 19:10 28.38 28.46 28.38 28.23 28.16 28.10
8/27/2016 19:00 to 18:10 28.11 28.08 28.05 28.00 27.94 27.89
8/27/2016 18:00 to 17:10 27.89 27.88 27.81 27.78 27.81 27.69
8/27/2016 17:00 to 16:10 27.73 27.66 27.66 27.69 27.65 27.56
8/27/2016 16:00 to 15:10 27.66 27.66 27.60 27.60 27.53 27.50
8/27/2016 15:00 to 14:10 27.58 27.55 27.54 27.48 27.48 27.44
8/27/2016 14:00 to 13:10 27.44 27.51 27.52 27.51 27.44 27.48
8/27/2016 13:00 to 12:10 27.44 27.51 27.49 27.47 27.46 27.44
8/27/2016 12:00 to 11:10 27.49 27.49 27.55 27.50 27.57 27.53
8/27/2016 11:00 to 10:10 27.56 27.55 27.54 27.56 27.58 27.57
8/27/2016 10:00 to 9:10 27.54 27.55 27.55 27.53 27.57 27.50
8/27/2016 09:00 to 8:10 27.49 27.44 27.45 27.44 27.40 27.41
8/27/2016 08:00 to 7:10 27.43 27.38 27.35 27.38 27.40 27.39
8/27/2016 07:00 to 6:10 27.35 27.31 27.27 27.27 27.19 27.19
8/27/2016 06:00 to 5:10 27.19 27.20 27.14 27.12 27.12 27.12
8/27/2016 05:00 to 4:10 27.16 27.14 27.13 27.10 27.14 27.15
8/27/2016 04:00 to 3:10 27.17 27.24 27.20 27.15 27.09 27.07
8/27/2016 03:00 to 2:10 27.11 27.11 27.02 27.01 26.94 26.87
8/27/2016 02:00 to 1:10 26.82 26.81 26.82 26.75 26.75 26.67
8/27/2016 01:00 to 0:10 26.68 26.78 26.74 26.70 26.64 26.66